Time;durP1;ratioP1;P1;durP2;ratioP2;P2;SDS_P1;SDS_P2;PMS_P1;PMS_P2;Temp;Humidity;BMP_temperature;BMP_pressure;BME280_temperature;BME280_humidity;BME280_pressure;Samples;Min_cycle;Max_cycle;Signal;HPM_P1;HPM_P2
2022/12/12 00:01:50;;;;;;;23.45;14.52;;;1.40;99.90;;;;;;4955742;28;20133;-83
2022/12/12 00:04:16;;;;;;;24.75;15.25;;;1.40;99.90;;;;;;4954366;29;20491;-82
2022/12/12 00:06:41;;;;;;;25.27;14.82;;;1.40;99.90;;;;;;4955086;28;20130;-83
2022/12/12 00:09:08;;;;;;;22.25;14.43;;;1.50;99.90;;;;;;4967946;28;20466;-83
2022/12/12 00:11:34;;;;;;;22.08;13.93;;;1.40;99.90;;;;;;4967161;28;20043;-83
2022/12/12 00:14:00;;;;;;;25.55;15.90;;;1.40;99.90;;;;;;4970466;28;20102;-83
2022/12/12 00:16:25;;;;;;;24.65;15.23;;;1.40;99.90;;;;;;4973617;28;20487;-83
2022/12/12 00:18:53;;;;;;;22.92;14.50;;;1.40;99.90;;;;;;4967966;28;20090;-83
2022/12/12 00:21:22;;;;;;;23.58;14.30;;;1.50;99.90;;;;;;4958160;28;20043;-83
2022/12/12 00:23:48;;;;;;;24.15;14.70;;;1.40;99.90;;;;;;4963660;28;20506;-83
2022/12/12 00:26:24;;;;;;;21.55;13.57;;;1.40;99.90;;;;;;4971333;28;20047;-83
2022/12/12 00:28:50;;;;;;;20.73;13.57;;;1.40;99.90;;;;;;4972579;28;20121;-83
2022/12/12 00:31:16;;;;;;;21.70;13.52;;;1.40;99.90;;;;;;4974976;28;20146;-83
2022/12/12 00:33:46;;;;;;;22.08;14.00;;;1.40;99.90;;;;;;4972535;28;20494;-83
2022/12/12 00:36:13;;;;;;;22.75;13.63;;;1.40;99.90;;;;;;4972124;28;20499;-83
2022/12/12 00:38:38;;;;;;;22.55;15.13;;;1.50;99.90;;;;;;4958168;28;20031;-82
2022/12/12 00:41:05;;;;;;;23.63;14.73;;;1.40;99.90;;;;;;4960232;28;20516;-82
2022/12/12 00:43:30;;;;;;;22.92;14.20;;;1.40;99.90;;;;;;4971925;28;20050;-82
2022/12/12 00:45:58;;;;;;;25.38;14.90;;;1.40;99.90;;;;;;4974891;28;20101;-82
2022/12/12 00:48:24;;;;;;;22.63;13.95;;;1.40;99.90;;;;;;4958795;28;20051;-82
2022/12/12 00:50:49;;;;;;;27.02;15.30;;;1.40;99.90;;;;;;4970016;28;20074;-82
2022/12/12 00:53:15;;;;;;;22.60;14.50;;;1.40;99.90;;;;;;4954721;28;20514;-82
2022/12/12 00:55:41;;;;;;;23.55;14.32;;;1.40;99.90;;;;;;4956386;28;20054;-82
2022/12/12 00:58:07;;;;;;;20.70;13.88;;;1.40;99.90;;;;;;4963165;28;20039;-82
2022/12/12 01:00:33;;;;;;;23.70;14.02;;;1.40;99.90;;;;;;4955082;28;20047;-82
2022/12/12 01:02:59;;;;;;;20.23;12.93;;;1.40;99.90;;;;;;4973706;28;20058;-82
2022/12/12 01:05:26;;;;;;;21.73;14.00;;;1.40;99.90;;;;;;4973879;28;20538;-82
2022/12/12 01:07:51;;;;;;;23.58;14.10;;;1.40;99.90;;;;;;4954038;28;20123;-82
2022/12/12 01:10:17;;;;;;;23.38;13.93;;;1.40;99.90;;;;;;4957942;28;20118;-82
2022/12/12 01:12:43;;;;;;;24.58;14.02;;;1.40;99.90;;;;;;4971693;28;20125;-82
2022/12/12 01:15:09;;;;;;;22.75;13.73;;;1.40;99.90;;;;;;4972847;28;20483;-82
2022/12/12 01:17:36;;;;;;;22.70;14.30;;;1.40;99.90;;;;;;4972793;28;20058;-82
2022/12/12 01:20:10;;;;;;;23.92;13.95;;;1.50;99.90;;;;;;4971710;28;20074;-82
2022/12/12 01:22:36;;;;;;;;;;;1.50;99.90;;;;;;4957983;28;20495;-82
2022/12/12 01:25:02;;;;;;;21.52;13.13;;;1.50;99.90;;;;;;4969369;28;20277;-81
2022/12/12 01:27:28;;;;;;;22.92;14.07;;;1.40;99.90;;;;;;4971884;28;20038;-82
2022/12/12 01:29:55;;;;;;;21.65;13.25;;;1.50;99.90;;;;;;4972519;28;20459;-82
2022/12/12 01:32:21;;;;;;;20.65;13.07;;;1.50;99.90;;;;;;4959244;28;20085;-82
2022/12/12 01:34:46;;;;;;;19.73;12.50;;;1.40;99.90;;;;;;4959562;28;20047;-82
2022/12/12 01:37:12;;;;;;;21.58;13.20;;;1.50;99.90;;;;;;4959351;28;20123;-83
2022/12/12 01:39:38;;;;;;;23.42;13.27;;;1.50;99.90;;;;;;4968047;28;20047;-82
2022/12/12 01:42:08;;;;;;;23.20;14.30;;;1.50;99.90;;;;;;4961376;28;20051;-82
2022/12/12 01:44:48;;;;;;;21.88;13.18;;;1.50;99.90;;;;;;4954107;29;20054;-82
2022/12/12 01:47:16;;;;;;;23.08;13.65;;;1.50;99.90;;;;;;4954232;28;20546;-82
2022/12/12 01:49:50;;;;;;;21.50;13.32;;;1.50;99.90;;;;;;4954663;29;20046;-82
2022/12/12 01:52:20;;;;;;;20.23;12.60;;;1.40;99.90;;;;;;4967232;28;20074;-82
2022/12/12 01:54:50;;;;;;;19.33;12.10;;;1.40;99.90;;;;;;4959372;28;20094;-82
2022/12/12 01:57:30;;;;;;;20.42;12.77;;;1.50;99.90;;;;;;4971099;28;20051;-82
2022/12/12 01:59:59;;;;;;;20.40;12.52;;;1.40;99.90;;;;;;4973288;28;20050;-82
2022/12/12 02:02:25;;;;;;;21.02;13.13;;;1.40;99.90;;;;;;4968347;28;20054;-82
2022/12/12 02:04:51;;;;;;;21.38;13.15;;;1.40;99.90;;;;;;4953504;28;20391;-82
2022/12/12 02:07:17;;;;;;;20.98;12.93;;;1.40;99.90;;;;;;4967653;28;20054;-82
2022/12/12 02:09:44;;;;;;;22.70;13.27;;;1.50;99.90;;;;;;4971595;28;20054;-82
2022/12/12 02:12:12;;;;;;;23.92;14.00;;;1.40;99.90;;;;;;4970042;28;20491;-83
2022/12/12 02:14:42;;;;;;;20.80;13.40;;;1.40;99.90;;;;;;4962924;28;20051;-82
2022/12/12 02:17:17;;;;;;;22.33;13.75;;;1.40;99.90;;;;;;4959655;28;20045;-82
2022/12/12 02:20:00;;;;;;;21.88;13.55;;;1.40;99.90;;;;;;4957469;28;20058;-82
2022/12/12 02:23:10;;;;;;;22.17;13.18;;;1.40;99.90;;;;;;4954072;28;20165;-82
2022/12/12 02:25:54;;;;;;;21.08;12.90;;;1.40;99.90;;;;;;4953340;29;20047;-82
2022/12/12 02:28:36;;;;;;;;;;;1.40;99.90;;;;;;4955667;28;20048;-82
2022/12/12 02:31:35;;;;;;;20.77;12.63;;;1.40;99.90;;;;;;4955394;28;19969;-83
2022/12/12 02:34:17;;;;;;;20.27;12.85;;;1.30;99.90;;;;;;4971576;28;20046;-82
2022/12/12 02:37:05;;;;;;;20.15;12.40;;;1.40;99.90;;;;;;4968269;28;20130;-82
2022/12/12 02:40:02;;;;;;;19.90;12.50;;;1.40;99.90;;;;;;4956836;28;20114;-82
2022/12/12 02:42:45;;;;;;;18.08;11.27;;;1.40;99.90;;;;;;4961368;28;20490;-83
2022/12/12 02:45:13;;;;;;;22.60;13.40;;;1.40;99.90;;;;;;4958450;28;20518;-82
2022/12/12 02:47:46;;;;;;;22.45;13.25;;;1.40;99.90;;;;;;4971363;28;20483;-82
2022/12/12 02:50:19;;;;;;;20.45;12.70;;;1.40;99.90;;;;;;4967877;28;20057;-82
2022/12/12 02:52:46;;;;;;;22.08;11.75;;;1.40;99.90;;;;;;4959014;28;20422;-82
2022/12/12 02:55:12;;;;;;;20.58;12.90;;;1.40;99.90;;;;;;4968212;28;20051;-82
2022/12/12 02:57:40;;;;;;;21.10;12.40;;;1.40;99.90;;;;;;4971562;28;20043;-82
2022/12/12 03:00:11;;;;;;;22.20;12.70;;;1.40;99.90;;;;;;4976663;28;20043;-82
2022/12/12 03:09:44;;;;;;;20.05;12.45;;;1.30;99.90;;;;;;4966301;28;20130;-82
2022/12/12 03:12:18;;;;;;;19.75;12.55;;;1.30;99.90;;;;;;4970097;28;20039;-82
2022/12/12 03:14:49;;;;;;;;;;;1.30;99.90;;;;;;4961158;28;20578;-82
2022/12/12 03:17:24;;;;;;;22.40;11.82;;;1.30;99.90;;;;;;4968635;28;19925;-82
2022/12/12 03:20:01;;;;;;;20.88;12.70;;;1.30;99.90;;;;;;4968582;28;20121;-82
2022/12/12 03:22:46;;;;;;;24.17;13.23;;;1.30;99.90;;;;;;4963669;28;20069;-82
2022/12/12 03:25:28;;;;;;;22.38;12.27;;;1.30;99.90;;;;;;4971928;28;20039;-82
2022/12/12 03:28:04;;;;;;;21.30;12.27;;;1.30;99.90;;;;;;4965732;28;20055;-82
2022/12/12 03:30:35;;;;;;;19.98;12.30;;;1.30;99.90;;;;;;4973681;28;20181;-82
2022/12/12 03:33:27;;;;;;;20.52;12.23;;;1.30;99.90;;;;;;4969400;28;20399;-82
2022/12/12 03:36:05;;;;;;;22.17;13.50;;;1.30;99.90;;;;;;4972018;28;20039;-82
2022/12/12 03:38:36;;;;;;;19.65;12.02;;;1.40;99.90;;;;;;4971359;28;20051;-83
2022/12/12 03:41:07;;;;;;;20.33;12.68;;;1.30;99.90;;;;;;4963323;28;20046;-83
2022/12/12 03:43:59;;;;;;;17.92;12.00;;;1.40;99.90;;;;;;4971141;28;20054;-82
2022/12/12 03:47:02;;;;;;;20.73;12.90;;;1.40;99.90;;;;;;4966181;28;20110;-83
2022/12/12 03:49:42;;;;;;;18.80;11.90;;;1.40;99.90;;;;;;4956537;28;20113;-82
2022/12/12 03:52:14;;;;;;;19.98;12.13;;;1.40;99.90;;;;;;4969770;28;20510;-82
2022/12/12 03:54:47;;;;;;;19.35;11.55;;;1.40;99.90;;;;;;4969450;28;20066;-83
2022/12/12 03:57:34;;;;;;;;;;;1.40;99.90;;;;;;4968835;28;20039;-82
2022/12/12 04:00:09;;;;;;;17.67;10.57;;;1.40;99.90;;;;;;4955717;28;20394;-82
2022/12/12 04:03:07;;;;;;;23.55;12.68;;;1.30;99.90;;;;;;4972382;28;20047;-82
2022/12/12 04:06:25;;;;;;;19.60;12.65;;;1.40;99.90;;;;;;4970482;28;20479;-82
2022/12/12 04:08:32;;;;;;;20.13;11.98;;;1.40;99.90;;;;;;4963933;28;20089;-82
2022/12/12 04:13:56;;;;;;;19.30;11.77;;;1.30;99.90;;;;;;4953890;29;20075;-82
2022/12/12 04:16:30;;;;;;;20.27;12.43;;;1.30;99.90;;;;;;4961483;28;20051;-82
2022/12/12 04:19:12;;;;;;;18.73;11.95;;;1.40;99.90;;;;;;4964746;28;20039;-82
2022/12/12 04:24:58;;;;;;;18.92;11.85;;;1.30;99.90;;;;;;4973773;28;20058;-82
2022/12/12 04:27:31;;;;;;;19.05;12.30;;;1.30;99.90;;;;;;4970225;28;20054;-82
2022/12/12 04:30:04;;;;;;;20.65;12.60;;;1.30;99.90;;;;;;4956548;28;20074;-82
2022/12/12 04:32:39;;;;;;;21.67;13.10;;;1.40;99.90;;;;;;4961603;28;20039;-83
2022/12/12 04:35:22;;;;;;;21.85;12.38;;;1.30;99.90;;;;;;4968268;28;20047;-82
2022/12/12 04:37:49;;;;;;;;;;;1.30;99.90;;;;;;4963313;28;20040;-82
2022/12/12 04:40:34;;;;;;;18.38;11.13;;;1.30;99.90;;;;;;4954829;28;20013;-82
2022/12/12 04:43:05;;;;;;;17.75;11.48;;;1.30;99.90;;;;;;4960922;28;20374;-82
2022/12/12 04:45:35;;;;;;;18.52;11.05;;;1.30;99.90;;;;;;4970969;28;20121;-83
2022/12/12 04:48:04;;;;;;;17.63;10.90;;;1.30;99.90;;;;;;4969405;28;20047;-82
2022/12/12 04:50:31;;;;;;;18.83;11.38;;;1.30;99.90;;;;;;4963882;28;20126;-82
2022/12/12 04:53:01;;;;;;;21.83;12.40;;;1.30;99.90;;;;;;4957559;28;20035;-82
2022/12/12 04:55:41;;;;;;;20.75;13.43;;;1.30;99.90;;;;;;4961118;28;20522;-82
2022/12/12 04:58:07;;;;;;;21.77;12.45;;;1.30;99.90;;;;;;4970773;28;20085;-82
2022/12/12 05:01:05;;;;;;;20.40;11.70;;;1.30;99.90;;;;;;4970808;28;20038;-82
2022/12/12 05:03:48;;;;;;;22.92;12.35;;;1.30;99.90;;;;;;4961962;28;20054;-82
2022/12/12 05:06:20;;;;;;;20.20;11.73;;;1.30;99.90;;;;;;4965953;28;20058;-82
2022/12/12 05:08:48;;;;;;;19.33;11.63;;;1.30;99.90;;;;;;4966725;28;20491;-82
2022/12/12 05:11:17;;;;;;;18.85;11.23;;;1.30;99.90;;;;;;4973682;28;20498;-82
2022/12/12 05:13:43;;;;;;;18.30;11.63;;;1.30;99.90;;;;;;4971421;28;20118;-82
2022/12/12 05:16:14;;;;;;;18.85;11.77;;;1.30;99.90;;;;;;4971570;28;20133;-82
2022/12/12 05:18:40;;;;;;;19.63;12.00;;;1.30;99.90;;;;;;4972677;28;20054;-83
2022/12/12 05:21:06;;;;;;;19.00;11.75;;;1.30;99.90;;;;;;4960207;28;20045;-83
2022/12/12 05:23:32;;;;;;;19.70;12.18;;;1.30;99.90;;;;;;4967432;28;20426;-83
2022/12/12 05:25:57;;;;;;;18.88;11.60;;;1.30;99.90;;;;;;4956631;28;20031;-83
2022/12/12 05:28:23;;;;;;;19.45;12.18;;;1.30;99.90;;;;;;4953660;28;20051;-93
2022/12/12 05:30:48;;;;;;;17.83;11.70;;;1.30;99.90;;;;;;4955031;28;20047;-92
2022/12/12 05:33:14;;;;;;;19.00;12.13;;;1.30;99.90;;;;;;4955765;28;20047;-92
2022/12/12 05:35:40;;;;;;;20.55;11.90;;;1.30;99.90;;;;;;4954785;29;20047;-91
2022/12/12 05:38:05;;;;;;;18.40;11.85;;;1.30;99.90;;;;;;4955661;28;20067;-84
2022/12/12 05:40:31;;;;;;;18.83;11.73;;;1.30;99.90;;;;;;4961226;28;20039;-82
2022/12/12 05:42:57;;;;;;;20.70;12.43;;;1.30;99.90;;;;;;4975057;28;20449;-83
2022/12/12 05:45:23;;;;;;;20.05;12.00;;;1.30;99.90;;;;;;4973260;28;20125;-82
2022/12/12 05:47:48;;;;;;;21.42;13.32;;;1.30;99.90;;;;;;4958367;28;20082;-82
2022/12/12 05:50:14;;;;;;;22.75;13.25;;;1.30;99.90;;;;;;4954918;28;20400;-82
2022/12/12 05:52:39;;;;;;;26.25;13.60;;;1.30;99.90;;;;;;4953021;28;20145;-82
2022/12/12 05:55:06;;;;;;;21.55;13.48;;;1.30;99.90;;;;;;4953840;29;20546;-82
2022/12/12 05:57:31;;;;;;;21.77;12.85;;;1.30;99.90;;;;;;4984828;28;20067;-82
2022/12/12 05:59:57;;;;;;;19.98;12.40;;;1.30;99.90;;;;;;4953348;28;20141;-82
2022/12/12 06:02:22;;;;;;;23.42;13.48;;;1.30;99.90;;;;;;4953000;29;20049;-82
2022/12/12 06:04:48;;;;;;;21.95;12.85;;;1.30;99.90;;;;;;4971944;28;20045;-82
2022/12/12 06:07:13;;;;;;;21.02;12.75;;;1.30;99.90;;;;;;4973964;28;20042;-82
2022/12/12 06:09:39;;;;;;;22.52;13.10;;;1.30;99.90;;;;;;4991271;28;20057;-82
2022/12/12 06:12:05;;;;;;;20.92;12.57;;;1.30;99.90;;;;;;4975816;28;20129;-82
2022/12/12 06:14:30;;;;;;;20.92;12.85;;;1.30;99.90;;;;;;4976485;28;20050;-82
2022/12/12 06:16:56;;;;;;;19.50;12.88;;;1.30;99.90;;;;;;4978769;28;20078;-82
2022/12/12 06:19:22;;;;;;;20.83;12.70;;;1.30;99.90;;;;;;4973980;28;20043;-82
2022/12/12 06:21:47;;;;;;;23.77;13.60;;;1.30;99.90;;;;;;4978364;28;20389;-82
2022/12/12 06:24:13;;;;;;;21.48;12.63;;;1.30;99.90;;;;;;4976299;28;20047;-82
2022/12/12 06:26:38;;;;;;;20.25;12.35;;;1.30;99.90;;;;;;4977282;28;20046;-82
2022/12/12 06:29:04;;;;;;;21.10;12.73;;;1.30;99.90;;;;;;4977175;28;20134;-82
2022/12/12 06:31:30;;;;;;;22.40;12.52;;;1.30;99.90;;;;;;4973928;28;20046;-82
2022/12/12 06:33:56;;;;;;;23.02;13.38;;;1.30;99.90;;;;;;4976757;28;20141;-82
2022/12/12 06:36:23;;;;;;;21.40;13.07;;;1.30;99.90;;;;;;4977537;28;20398;-82
2022/12/12 06:38:57;;;;;;;22.75;14.10;;;1.30;99.90;;;;;;4975770;28;20054;-82
2022/12/12 06:41:25;;;;;;;20.73;13.23;;;1.30;99.90;;;;;;4975185;28;20054;-82
2022/12/12 06:43:51;;;;;;;20.02;12.48;;;1.30;99.90;;;;;;4977422;28;20078;-82
2022/12/12 06:46:22;;;;;;;23.25;13.23;;;1.30;99.90;;;;;;4975747;28;20047;-82
2022/12/12 06:48:49;;;;;;;22.10;13.43;;;1.30;99.90;;;;;;4975941;28;20081;-82
2022/12/12 06:51:21;;;;;;;23.55;14.18;;;1.30;99.90;;;;;;4977276;28;20074;-81
2022/12/12 06:53:47;;;;;;;20.83;12.70;;;1.30;99.90;;;;;;4975809;28;20053;-81
2022/12/12 06:56:15;;;;;;;21.90;13.85;;;1.30;99.90;;;;;;4974403;28;20042;-81
2022/12/12 06:58:41;;;;;;;48.90;22.80;;;1.30;99.90;;;;;;4977641;28;20438;-81
2022/12/12 07:01:07;;;;;;;25.00;15.32;;;1.30;99.90;;;;;;4975280;28;20046;-82
2022/12/12 07:03:33;;;;;;;27.67;15.20;;;1.30;99.90;;;;;;4977519;28;20038;-82
2022/12/12 07:05:59;;;;;;;24.60;14.48;;;1.30;99.90;;;;;;4976963;28;20066;-81
2022/12/12 07:08:27;;;;;;;27.33;14.95;;;1.30;99.90;;;;;;4976490;28;20050;-82
2022/12/12 07:10:53;;;;;;;28.73;15.27;;;1.30;99.90;;;;;;4966205;28;20115;-82
2022/12/12 07:13:19;;;;;;;26.08;13.88;;;1.30;99.90;;;;;;4957504;28;20043;-81
2022/12/12 07:15:47;;;;;;;25.85;14.48;;;1.30;99.90;;;;;;4956665;28;20498;-81
2022/12/12 07:18:14;;;;;;;25.70;14.57;;;1.30;99.90;;;;;;4956961;29;20051;-82
2022/12/12 07:20:41;;;;;;;30.85;16.52;;;1.30;99.90;;;;;;4957851;28;20054;-82
2022/12/12 07:23:07;;;;;;;26.17;14.65;;;1.30;99.90;;;;;;4968164;28;20391;-83
2022/12/12 07:25:36;;;;;;;25.17;14.48;;;1.30;99.90;;;;;;4958359;29;20047;-83
2022/12/12 07:28:01;;;;;;;27.23;14.13;;;1.30;99.90;;;;;;4969645;28;20506;-81
2022/12/12 07:30:27;;;;;;;23.63;14.45;;;1.30;99.90;;;;;;4976109;28;20043;-83
2022/12/12 07:32:52;;;;;;;24.55;13.68;;;1.30;99.90;;;;;;4977267;28;20039;-83
2022/12/12 07:35:18;;;;;;;27.67;14.85;;;1.30;99.90;;;;;;4964974;28;20431;-83
2022/12/12 07:37:44;;;;;;;24.35;14.15;;;1.30;99.90;;;;;;4973711;28;20051;-83
2022/12/12 07:40:09;;;;;;;25.33;14.88;;;1.30;99.90;;;;;;4976366;28;20394;-83
2022/12/12 07:42:35;;;;;;;24.13;14.43;;;1.30;99.90;;;;;;4974431;28;20043;-83
2022/12/12 07:45:00;;;;;;;26.00;14.90;;;1.30;99.90;;;;;;4974630;28;20054;-84
2022/12/12 07:47:26;;;;;;;24.67;14.20;;;1.30;99.90;;;;;;4975526;28;20046;-84
2022/12/12 07:49:53;;;;;;;23.40;14.00;;;1.30;99.90;;;;;;4973379;28;20134;-85
2022/12/12 07:52:19;;;;;;;23.02;13.93;;;1.20;99.90;;;;;;4975216;28;20043;-84
2022/12/12 07:54:44;;;;;;;21.58;13.25;;;1.30;99.90;;;;;;4972830;28;20038;-83
2022/12/12 07:57:10;;;;;;;22.77;13.18;;;1.20;99.90;;;;;;4976149;28;20086;-84
2022/12/12 07:59:36;;;;;;;23.48;13.80;;;1.20;99.90;;;;;;4990965;28;20041;-82
2022/12/12 08:02:01;;;;;;;22.38;14.15;;;1.20;99.90;;;;;;4975973;28;20092;-82
2022/12/12 08:04:27;;;;;;;23.85;14.10;;;1.20;99.90;;;;;;4990372;28;20046;-82
2022/12/12 08:06:53;;;;;;;21.98;13.65;;;1.20;99.90;;;;;;4975689;28;20042;-82
2022/12/12 08:09:18;;;;;;;23.10;13.13;;;1.20;99.90;;;;;;4975771;28;20058;-82
2022/12/12 08:11:44;;;;;;;22.15;14.23;;;1.20;99.90;;;;;;4973275;28;20114;-82
2022/12/12 08:14:10;;;;;;;22.83;13.85;;;1.20;99.90;;;;;;4976606;28;20038;-82
2022/12/12 08:16:35;;;;;;;20.13;12.73;;;1.20;99.90;;;;;;4956384;28;20082;-82
2022/12/12 08:19:01;;;;;;;23.85;13.75;;;1.20;99.90;;;;;;4957767;28;20122;-82
2022/12/12 08:21:27;;;;;;;22.85;14.02;;;1.20;99.90;;;;;;4973450;28;20054;-82
2022/12/12 08:23:57;;;;;;;23.23;13.65;;;1.20;99.90;;;;;;4974574;28;20042;-82
2022/12/12 08:26:23;;;;;;;22.02;11.95;;;1.20;99.90;;;;;;4973700;28;20046;-82
2022/12/12 08:28:49;;;;;;;23.73;13.63;;;1.20;99.90;;;;;;4974539;28;20082;-82
2022/12/12 08:31:16;;;;;;;23.45;14.05;;;1.20;99.90;;;;;;4973730;28;20054;-83
2022/12/12 08:33:42;;;;;;;22.75;14.18;;;1.20;99.90;;;;;;4989228;28;20047;-82
2022/12/12 08:36:17;;;;;;;22.92;14.10;;;1.20;99.90;;;;;;4957618;28;20506;-82
2022/12/12 08:38:43;;;;;;;23.88;13.80;;;1.20;99.90;;;;;;4960760;28;20402;-82
2022/12/12 08:41:10;;;;;;;22.90;13.75;;;1.20;99.90;;;;;;4955772;28;20055;-83
2022/12/12 08:43:36;;;;;;;22.63;13.32;;;1.20;99.90;;;;;;4955311;28;20047;-83
2022/12/12 08:46:03;;;;;;;21.48;13.40;;;1.20;99.90;;;;;;4955281;29;20400;-83
2022/12/12 08:48:29;;;;;;;22.00;13.60;;;1.30;99.90;;;;;;4954651;28;20070;-83
2022/12/12 08:50:56;;;;;;;24.38;14.18;;;1.30;99.90;;;;;;4956545;28;20118;-84
2022/12/12 08:53:22;;;;;;;23.60;13.57;;;1.20;99.90;;;;;;4954975;28;20134;-83
2022/12/12 08:55:48;;;;;;;22.80;13.35;;;1.30;99.90;;;;;;4955099;29;20133;-83
2022/12/12 08:58:14;;;;;;;24.02;13.27;;;1.30;99.90;;;;;;4956416;28;20075;-83
2022/12/12 09:00:40;;;;;;;22.17;13.57;;;1.30;99.90;;;;;;4955729;28;20074;-83
2022/12/12 09:03:06;;;;;;;23.75;13.95;;;1.30;99.90;;;;;;4957863;28;20043;-84
2022/12/12 09:05:31;;;;;;;21.38;13.43;;;1.30;99.90;;;;;;4973860;28;20105;-83
2022/12/12 09:07:58;;;;;;;21.45;12.73;;;1.30;99.90;;;;;;4972834;28;20065;-83
2022/12/12 09:10:25;;;;;;;21.50;12.80;;;1.30;99.90;;;;;;4973610;28;20138;-84
2022/12/12 09:12:51;;;;;;;22.08;12.75;;;1.30;99.90;;;;;;4972165;28;20047;-83
2022/12/12 09:15:17;;;;;;;22.48;13.30;;;1.30;99.90;;;;;;4964630;28;20041;-84
2022/12/12 09:17:42;;;;;;;21.50;13.82;;;1.30;99.90;;;;;;4955910;29;20047;-84
2022/12/12 09:20:09;;;;;;;23.88;13.32;;;1.30;99.90;;;;;;4968963;28;20042;-84
2022/12/12 09:22:35;;;;;;;23.10;15.35;;;1.30;99.90;;;;;;4973805;28;20049;-84
2022/12/12 09:25:00;;;;;;;22.60;12.60;;;1.30;99.90;;;;;;4975585;28;20129;-84
2022/12/12 09:27:26;;;;;;;25.58;15.90;;;1.40;99.90;;;;;;4973686;28;20043;-83
2022/12/12 09:29:51;;;;;;;21.98;13.75;;;1.40;99.90;;;;;;4973293;28;20455;-83
2022/12/12 09:32:17;;;;;;;22.83;14.07;;;1.40;99.90;;;;;;4960416;28;20070;-83
2022/12/12 09:34:43;;;;;;;19.90;12.63;;;1.40;99.90;;;;;;4956006;29;20043;-84
2022/12/12 09:37:09;;;;;;;21.88;13.32;;;1.40;99.90;;;;;;4955339;28;20514;-84
2022/12/12 09:39:34;;;;;;;20.70;13.10;;;1.40;99.90;;;;;;4966167;28;20491;-84
2022/12/12 09:42:22;;;;;;;19.10;12.95;;;1.40;99.90;;;;;;4990636;28;20067;-84
2022/12/12 09:44:48;;;;;;;20.85;12.88;;;1.40;99.90;;;;;;4977228;28;20046;-84
2022/12/12 09:47:22;;;;;;;20.33;13.15;;;1.40;99.90;;;;;;4978693;28;20053;-84
2022/12/12 09:49:51;;;;;;;20.60;12.90;;;1.40;99.90;;;;;;4962650;28;20055;-85
2022/12/12 09:52:30;;;;;;;22.10;14.05;;;1.40;99.90;;;;;;4970333;28;20050;-84
2022/12/12 09:55:01;;;;;;;21.65;13.57;;;1.40;99.90;;;;;;4978342;28;20097;-84
2022/12/12 09:57:58;;;;;;;20.45;13.07;;;1.40;99.90;;;;;;4976425;28;20145;-84
2022/12/12 10:00:26;;;;;;;19.60;12.73;;;1.50;99.90;;;;;;4977737;28;20043;-85
2022/12/12 10:03:20;;;;;;;21.85;14.07;;;1.50;99.90;;;;;;4979432;28;20058;-85
2022/12/12 10:06:01;;;;;;;26.23;14.90;;;1.50;99.90;;;;;;4977242;28;20065;-85
2022/12/12 10:08:57;;;;;;;22.63;14.05;;;1.50;99.90;;;;;;4977854;28;20202;-85
2022/12/12 10:11:49;;;;;;;21.35;13.38;;;1.50;99.90;;;;;;4979334;28;20077;-84
2022/12/12 10:14:18;;;;;;;20.23;12.82;;;1.50;99.90;;;;;;4980028;28;20549;-85
2022/12/12 10:16:44;;;;;;;19.83;12.93;;;1.50;99.90;;;;;;4980302;28;20054;-85
2022/12/12 10:19:22;;;;;;;21.30;13.45;;;1.50;99.90;;;;;;4978653;28;20050;-85
2022/12/12 10:21:51;;;;;;;22.15;13.85;;;1.50;99.90;;;;;;4981011;28;20042;-85
2022/12/12 10:24:38;;;;;;;21.10;13.38;;;1.50;99.90;;;;;;4980414;28;20047;-84
2022/12/12 10:27:13;;;;;;;19.08;12.75;;;1.60;99.90;;;;;;4978563;28;20077;-84
2022/12/12 10:29:45;;;;;;;19.98;13.23;;;1.60;99.90;;;;;;4980462;28;20126;-84
2022/12/12 10:32:25;;;;;;;21.15;13.25;;;1.60;99.90;;;;;;4973753;28;20420;-84
2022/12/12 10:35:13;;;;;;;20.85;13.25;;;1.60;99.90;;;;;;4962376;28;20075;-83
2022/12/12 10:38:07;;;;;;;20.80;13.55;;;1.60;99.90;;;;;;4994648;28;20062;-85
2022/12/12 10:40:44;;;;;;;;;;;1.60;99.90;;;;;;4964008;28;20125;-84
2022/12/12 10:43:21;;;;;;;19.35;12.32;;;1.60;99.90;;;;;;4961679;28;19933;-84
2022/12/12 10:46:19;;;;;;;19.73;13.05;;;1.60;99.90;;;;;;4960955;28;20043;-84
2022/12/12 10:48:47;;;;;;;19.70;12.07;;;1.60;99.90;;;;;;4961465;29;20083;-84
2022/12/12 10:51:16;;;;;;;23.38;12.82;;;1.70;99.90;;;;;;4959163;28;20487;-84
2022/12/12 10:53:42;;;;;;;21.40;13.32;;;1.70;99.90;;;;;;4959290;28;20044;-84
2022/12/12 10:56:30;;;;;;;21.75;13.13;;;1.70;99.90;;;;;;4958255;28;20066;-84
2022/12/12 10:58:58;;;;;;;21.55;13.02;;;1.70;99.90;;;;;;4959678;28;20051;-85
2022/12/12 11:01:30;;;;;;;19.73;12.75;;;1.70;99.90;;;;;;4958576;28;20043;-85
2022/12/12 11:03:59;;;;;;;19.45;12.50;;;1.70;99.90;;;;;;4960795;28;20126;-84
2022/12/12 11:06:27;;;;;;;22.20;13.70;;;1.80;99.90;;;;;;4986921;28;20043;-83
2022/12/12 11:08:56;;;;;;;18.27;12.50;;;1.80;99.90;;;;;;4975225;28;20062;-83
2022/12/12 11:11:27;;;;;;;20.60;12.88;;;1.80;99.90;;;;;;4959195;28;20442;-83
2022/12/12 11:13:59;;;;;;;20.40;13.25;;;1.80;99.90;;;;;;4958083;28;20047;-83
2022/12/12 11:16:45;;;;;;;19.90;13.13;;;1.80;99.90;;;;;;4957604;28;20491;-84
2022/12/12 11:19:21;;;;;;;19.42;12.32;;;1.80;99.90;;;;;;4981261;28;20098;-84
2022/12/12 11:21:47;;;;;;;20.40;12.98;;;1.90;99.90;;;;;;4974132;28;20047;-84
2022/12/12 11:24:16;;;;;;;19.60;13.30;;;1.90;99.90;;;;;;4972673;28;20138;-84
2022/12/12 11:27:03;;;;;;;21.63;13.25;;;1.90;99.90;;;;;;4997086;23;20035;-84
2022/12/12 11:29:35;;;;;;;19.90;12.35;;;1.90;99.90;;;;;;4976524;28;20482;-85
2022/12/12 11:32:02;;;;;;;21.98;14.20;;;1.90;99.90;;;;;;4977727;28;20074;-84
2022/12/12 11:34:29;;;;;;;21.92;14.13;;;1.90;99.90;;;;;;4977211;28;20050;-84
2022/12/12 11:36:57;;;;;;;22.05;13.10;;;2.00;99.90;;;;;;4979026;28;20046;-85
2022/12/12 11:39:39;;;;;;;21.75;12.73;;;2.00;99.90;;;;;;4975726;28;20109;-84
2022/12/12 11:42:16;;;;;;;21.13;12.95;;;2.00;99.90;;;;;;4974682;28;20051;-84
2022/12/12 11:44:43;;;;;;;19.30;12.48;;;2.00;99.90;;;;;;5057792;23;20069;-84
2022/12/12 11:47:28;;;;;;;22.52;14.85;;;2.00;99.90;;;;;;4996122;28;20046;-84
2022/12/12 11:49:58;;;;;;;24.50;13.98;;;2.10;99.90;;;;;;4993941;23;20042;-82
2022/12/12 11:52:30;;;;;;;21.25;13.55;;;2.10;99.90;;;;;;4978586;28;20049;-82
2022/12/12 11:54:57;;;;;;;21.70;13.38;;;2.10;99.90;;;;;;4996762;28;20049;-84
2022/12/12 11:57:23;;;;;;;24.80;15.38;;;2.10;99.90;;;;;;4978354;28;20134;-84
2022/12/12 11:59:57;;;;;;;23.63;13.90;;;2.10;99.90;;;;;;4978314;28;20214;-85
2022/12/12 12:02:52;;;;;;;18.92;13.07;;;2.10;99.90;;;;;;4996393;28;20061;-85
2022/12/12 12:05:48;;;;;;;21.13;13.80;;;2.10;99.90;;;;;;4978451;28;20391;-85
2022/12/12 12:08:39;;;;;;;21.60;13.70;;;2.10;99.90;;;;;;4997233;28;20444;-84
2022/12/12 12:11:28;;;;;;;20.10;13.63;;;2.10;99.90;;;;;;4997217;28;20093;-85
2022/12/12 12:14:09;;;;;;;23.00;14.48;;;2.10;99.90;;;;;;4981610;28;20046;-85
2022/12/12 12:16:43;;;;;;;25.60;14.90;;;2.10;99.90;;;;;;4978588;28;20039;-85
2022/12/12 12:19:13;;;;;;;27.00;17.73;;;2.10;99.90;;;;;;4994733;28;20056;-85
2022/12/12 12:22:05;;;;;;;25.08;16.67;;;2.10;99.90;;;;;;4995821;28;20045;-85
2022/12/12 12:24:48;;;;;;;24.83;16.83;;;2.10;99.90;;;;;;4981689;28;20484;-85
2022/12/12 12:27:31;;;;;;;21.10;13.55;;;2.10;99.90;;;;;;4982325;28;20108;-84
2022/12/12 12:29:57;;;;;;;20.08;13.63;;;2.10;99.90;;;;;;4998970;28;20416;-85
2022/12/12 12:32:43;;;;;;;22.23;14.38;;;2.10;99.90;;;;;;4979831;28;20089;-85
2022/12/12 12:35:56;;;;;;;25.05;14.45;;;2.10;99.90;;;;;;4979541;28;20042;-85
2022/12/12 12:38:40;;;;;;;22.38;14.20;;;2.10;99.90;;;;;;4952969;28;20481;-84
2022/12/12 12:41:27;;;;;;;23.88;15.68;;;2.10;99.90;;;;;;4998215;28;20582;-85
2022/12/12 12:43:52;;;;;;;23.67;15.13;;;2.10;99.90;;;;;;4996541;28;20057;-84
2022/12/12 12:46:28;;;;;;;27.98;16.95;;;2.20;99.90;;;;;;4995691;28;20042;-87
2022/12/12 12:48:58;;;;;;;22.35;15.32;;;2.20;99.90;;;;;;4978039;28;20581;-87
2022/12/12 12:51:35;;;;;;;23.45;14.40;;;2.20;99.90;;;;;;4993709;28;20050;-84
2022/12/12 12:54:06;;;;;;;29.27;19.27;;;2.20;99.90;;;;;;4979646;28;20481;-85
2022/12/12 12:56:42;;;;;;;23.83;16.27;;;2.20;99.90;;;;;;4996571;28;20082;-85
2022/12/12 12:59:13;;;;;;;26.88;17.10;;;2.20;99.90;;;;;;4974823;28;20478;-85
2022/12/12 13:01:44;;;;;;;26.80;17.27;;;2.20;99.90;;;;;;4958783;28;20057;-85
2022/12/12 13:04:13;;;;;;;27.08;17.23;;;2.20;99.90;;;;;;4964193;28;20131;-85
2022/12/12 13:06:51;;;;;;;23.88;15.70;;;2.20;99.90;;;;;;4996076;28;20081;-85
2022/12/12 13:09:58;;;;;;;23.25;15.57;;;2.30;99.90;;;;;;4994581;28;20066;-86
2022/12/12 13:12:27;;;;;;;25.77;15.65;;;2.30;99.90;;;;;;4951137;28;20053;-85
2022/12/12 13:15:25;;;;;;;25.65;16.45;;;2.30;99.90;;;;;;4994249;28;20046;-86